Time;durP1;ratioP1;P1;durP2;ratioP2;P2;SDS_P1;SDS_P2;PMS_P1;PMS_P2;Temp;Humidity;BMP_temperature;BMP_pressure;BME280_temperature;BME280_humidity;BME280_pressure;Samples;Min_cycle;Max_cycle;Signal;HPM_P1;HPM_P2
2022/07/06 00:01:30;;;;;;;6.25;2.30;;;19.10;99.90;;;19.49;73.43;99303.28;5040540;27;115088;-76
2022/07/06 00:03:58;;;;;;;4.28;2.45;;;19.10;99.90;;;19.50;73.52;99299.38;5040212;27;130512;-76
2022/07/06 00:06:27;;;;;;;4.32;2.50;;;19.10;99.90;;;19.51;73.01;99296.25;5040129;27;129351;-74
2022/07/06 00:08:55;;;;;;;4.35;2.40;;;19.10;99.90;;;19.50;72.66;99294.66;5041230;27;118712;-75
2022/07/06 00:11:24;;;;;;;3.55;2.30;;;19.10;99.90;;;19.49;72.67;99284.81;5045345;27;115094;-75
2022/07/06 00:13:53;;;;;;;5.35;2.80;;;19.10;99.90;;;19.53;72.43;99287.59;5045955;27;132619;-74
2022/07/06 00:16:23;;;;;;;5.85;2.17;;;19.10;99.90;;;19.54;72.29;99286.41;5043718;27;130015;-74
2022/07/06 00:18:54;;;;;;;4.25;2.45;;;19.10;99.90;;;19.57;73.17;99280.16;5029596;27;118280;-75
2022/07/06 00:21:23;;;;;;;4.65;2.50;;;19.00;99.90;;;19.53;73.36;99287.59;5044994;27;116018;-76
2022/07/06 00:23:52;;;;;;;3.58;2.00;;;19.00;99.90;;;19.46;73.84;99282.81;5044017;27;129731;-74
2022/07/06 00:26:21;;;;;;;5.38;2.40;;;18.90;99.90;;;19.47;73.87;99275.34;5042114;27;130368;-74
2022/07/06 00:28:50;;;;;;;4.43;2.08;;;18.90;99.90;;;19.45;73.86;99270.22;5044486;27;119009;-76
2022/07/06 00:31:18;;;;;;;6.78;2.53;;;18.90;99.90;;;19.45;73.87;99274.94;5026132;27;115020;-75
2022/07/06 00:33:46;;;;;;;4.07;2.30;;;18.90;99.90;;;19.51;72.51;99281.66;5044084;27;129779;-75
2022/07/06 00:36:17;;;;;;;7.05;2.47;;;18.90;99.90;;;19.55;72.83;99285.25;5029123;27;128586;-76
2022/07/06 00:38:46;;;;;;;4.88;2.35;;;18.90;99.90;;;19.58;71.97;99284.50;5028236;27;117902;-74
2022/07/06 00:41:14;;;;;;;3.65;2.00;;;18.90;99.90;;;19.53;72.05;99282.09;5026227;27;115122;-75
2022/07/06 00:43:51;;;;;;;4.95;2.45;;;18.90;99.90;;;19.52;71.58;99272.25;5045631;27;130122;-74
2022/07/06 00:46:22;;;;;;;3.90;2.30;;;18.90;99.90;;;19.46;72.36;99271.00;5025299;27;129670;-74
2022/07/06 00:48:50;;;;;;;4.85;2.20;;;18.90;99.90;;;19.41;73.18;99263.88;5043198;27;119109;-75
2022/07/06 00:51:23;;;;;;;3.88;2.30;;;18.90;99.90;;;19.35;73.82;99266.19;5043486;27;115336;-75
2022/07/06 00:53:53;;;;;;;4.00;2.03;;;18.80;99.90;;;19.24;71.84;99264.47;5043471;27;130887;-75
2022/07/06 00:56:21;;;;;;;4.03;2.35;;;18.80;99.90;;;19.25;72.58;99258.59;5046542;27;129670;-75
2022/07/06 00:58:51;;;;;;;3.47;2.22;;;18.80;99.90;;;19.28;73.05;99249.59;5025875;27;118986;-74
2022/07/06 01:01:19;;;;;;;4.20;2.20;;;18.80;99.90;;;19.31;72.41;99243.34;5024555;27;115323;-77
2022/07/06 01:03:48;;;;;;;3.33;2.00;;;18.80;99.90;;;19.28;70.55;99251.56;5028765;27;129782;-76
2022/07/06 01:06:17;;;;;;;4.75;2.08;;;18.80;99.90;;;19.32;70.39;99244.94;5025480;27;129382;-74
2022/07/06 01:08:49;;;;;;;3.13;2.08;;;18.80;99.90;;;19.34;69.84;99244.56;5045594;27;118523;-76
2022/07/06 01:11:19;;;;;;;2.42;1.90;;;18.90;99.90;;;19.38;68.45;99237.94;5025714;27;115586;-76
2022/07/06 01:13:49;;;;;;;2.88;1.80;;;18.90;99.90;;;19.43;68.60;99244.25;5040494;27;129777;-76
2022/07/06 01:16:19;;;;;;;3.88;1.83;;;18.90;99.90;;;19.35;68.77;99235.13;5043186;27;129621;-74
2022/07/06 01:18:48;;;;;;;3.15;1.73;;;18.90;99.90;;;19.23;69.27;99241.69;5025615;27;119280;-74
2022/07/06 01:21:18;;;;;;;8.25;2.00;;;18.90;99.90;;;19.26;70.02;99238.19;5024743;27;114999;-75
2022/07/06 01:23:49;;;;;;;5.60;2.00;;;18.90;99.90;;;19.20;70.03;99236.94;5041439;27;130156;-74
2022/07/06 01:26:20;;;;;;;4.15;2.03;;;18.80;99.90;;;19.17;70.35;99237.69;5023972;27;129428;-75
2022/07/06 01:28:51;;;;;;;3.88;1.95;;;18.70;99.90;;;19.15;70.18;99240.00;5043479;27;118821;-75
2022/07/06 01:31:22;;;;;;;3.78;2.05;;;18.70;99.90;;;19.18;70.43;99247.50;5028406;27;114810;-74
2022/07/06 01:33:54;;;;;;;3.22;1.83;;;18.70;99.90;;;19.12;70.74;99240.75;5024398;27;129808;-74
2022/07/06 01:36:26;;;;;;;4.55;1.90;;;18.70;99.90;;;19.13;71.05;99243.13;5026574;27;129245;-74
2022/07/06 01:38:58;;;;;;;3.72;2.17;;;18.70;99.90;;;19.14;71.00;99243.94;5027509;27;118691;-74
2022/07/06 01:41:27;;;;;;;3.22;2.00;;;18.60;99.90;;;19.10;71.29;99248.59;5028981;27;114461;-75
2022/07/06 01:43:56;;;;;;;5.97;2.28;;;18.60;99.90;;;18.98;71.68;99241.38;5042714;27;129850;-76
2022/07/06 01:46:24;;;;;;;4.55;2.10;;;18.50;99.90;;;18.91;72.74;99242.09;5027454;27;128357;-75
2022/07/06 01:48:54;;;;;;;4.35;2.20;;;18.40;99.90;;;18.86;73.42;99234.19;5041580;27;118900;-74
2022/07/06 01:51:24;;;;;;;2.92;2.00;;;18.40;99.90;;;18.90;73.71;99235.03;5028461;27;114398;-76
2022/07/06 01:53:53;;;;;;;3.90;2.00;;;18.40;99.90;;;18.89;73.97;99241.69;5044663;27;129576;-75
2022/07/06 01:56:23;;;;;;;3.83;2.30;;;18.40;99.90;;;18.87;74.21;99244.03;5027267;27;129165;-75
2022/07/06 01:58:56;;;;;;;3.15;2.30;;;18.30;99.90;;;18.87;74.19;99233.03;5024856;27;118866;-77
2022/07/06 02:01:25;;;;;;;5.60;2.10;;;18.30;99.90;;;18.74;74.96;99231.66;5041885;27;116484;-74
2022/07/06 02:03:54;;;;;;;3.78;2.03;;;18.30;99.90;;;18.75;75.04;99227.75;5026551;27;128904;-75
2022/07/06 02:06:26;;;;;;;4.88;2.35;;;18.30;99.90;;;18.79;73.71;99234.88;5010423;27;128788;-76
2022/07/06 02:08:55;;;;;;;2.95;2.00;;;18.30;99.90;;;18.88;73.76;99231.06;5028055;27;117505;-77
2022/07/06 02:11:23;;;;;;;4.50;2.17;;;18.40;99.90;;;18.95;72.79;99231.94;5024177;27;115188;-76
2022/07/06 02:13:52;;;;;;;3.80;2.13;;;18.40;99.90;;;18.96;72.21;99229.97;5041538;27;130261;-74
2022/07/06 02:16:20;;;;;;;3.15;2.20;;;18.50;99.90;;;18.98;72.10;99236.69;5044224;27;130040;-74
2022/07/06 02:18:49;;;;;;;3.78;2.10;;;18.50;99.90;;;19.02;71.55;99232.00;5024374;27;118803;-74
2022/07/06 02:21:17;;;;;;;3.55;1.90;;;18.50;99.90;;;19.08;70.83;99237.19;5027812;27;115300;-74
2022/07/06 02:23:47;;;;;;;4.18;1.85;;;18.60;99.90;;;19.07;70.55;99243.84;5009616;27;129479;-76
2022/07/06 02:26:17;;;;;;;5.78;2.13;;;18.60;99.90;;;19.11;70.97;99242.72;5026813;27;128755;-75
2022/07/06 02:28:47;;;;;;;3.50;1.92;;;18.60;99.90;;;19.12;70.25;99249.00;5024167;27;119102;-74
2022/07/06 02:31:16;;;;;;;2.90;1.70;;;18.60;99.90;;;19.05;70.05;99235.97;5027483;27;115176;-75
2022/07/06 02:33:47;;;;;;;3.17;1.60;;;18.60;99.90;;;19.12;70.46;99229.75;5025860;27;129485;-74
2022/07/06 02:36:16;;;;;;;3.33;1.80;;;18.70;99.90;;;19.10;70.61;99232.09;5022348;27;130322;-74
2022/07/06 02:38:47;;;;;;;4.00;1.80;;;18.60;99.90;;;19.14;70.24;99232.94;5027146;27;118737;-74
2022/07/06 02:41:15;;;;;;;3.10;1.77;;;18.70;99.90;;;19.17;70.62;99229.44;5024508;27;114978;-75
2022/07/06 02:43:44;;;;;;;4.60;1.80;;;18.70;99.90;;;19.20;70.54;99231.44;5023789;27;129873;-76
2022/07/06 02:46:13;;;;;;;3.10;2.10;;;18.70;99.90;;;19.21;70.74;99225.56;5027077;27;129215;-73
2022/07/06 02:48:43;;;;;;;4.07;1.92;;;18.60;99.90;;;19.34;70.60;99226.09;5021920;27;119542;-78
2022/07/06 02:51:12;;;;;;;3.60;1.90;;;18.70;99.90;;;19.26;70.19;99216.19;5024417;27;116395;-73
2022/07/06 02:53:41;;;;;;;4.03;1.85;;;18.70;99.90;;;19.26;69.85;99212.63;5041729;27;129898;-75
2022/07/06 02:56:11;;;;;;;4.40;2.20;;;18.70;99.90;;;19.28;69.23;99210.31;5026466;27;128770;-75
2022/07/06 02:58:39;;;;;;;4.18;2.00;;;18.80;99.90;;;19.23;69.38;99214.19;5041323;27;118934;-75
2022/07/06 03:01:08;;;;;;;2.97;1.73;;;18.80;99.90;;;19.18;70.14;99198.00;5059995;27;115122;-75
2022/07/06 03:03:37;;;;;;;3.47;1.63;;;18.80;99.90;;;19.18;69.85;99201.56;5023352;27;130913;-75
2022/07/06 03:06:07;;;;;;;3.47;2.05;;;18.70;99.90;;;19.17;70.12;99194.47;5027181;27;129070;-75
2022/07/06 03:08:36;;;;;;;3.13;1.83;;;18.70;99.90;;;19.16;70.15;99197.59;5027112;27;118202;-76
2022/07/06 03:11:04;;;;;;;4.50;1.90;;;18.70;99.90;;;19.26;70.26;99188.69;5022747;27;115252;-75
2022/07/06 03:13:34;;;;;;;3.42;2.15;;;18.80;99.90;;;19.27;70.42;99187.50;5025893;27;129904;-74
2022/07/06 03:16:04;;;;;;;3.70;1.98;;;18.70;99.90;;;19.20;70.58;99190.19;5023511;27;129558;-75
2022/07/06 03:18:33;;;;;;;3.60;1.85;;;18.70;99.90;;;19.21;70.67;99183.50;5039763;27;119099;-74
2022/07/06 03:21:03;;;;;;;3.08;2.03;;;18.70;99.90;;;19.21;71.41;99189.00;5043742;27;114352;-73
2022/07/06 03:23:32;;;;;;;6.15;2.08;;;18.60;99.90;;;19.26;71.69;99180.44;5021508;27;130081;-75
2022/07/06 03:26:01;;;;;;;3.28;1.60;;;18.70;99.90;;;19.15;72.23;99177.56;5042613;27;129237;-75
2022/07/06 03:28:31;;;;;;;8.70;1.70;;;18.60;99.90;;;19.09;71.94;99175.50;5040239;27;118566;-74
2022/07/06 03:31:01;;;;;;;3.33;1.70;;;18.60;99.90;;;19.11;72.59;99178.69;5026433;27;114771;-75
2022/07/06 03:33:30;;;;;;;4.65;1.92;;;18.60;99.90;;;19.04;71.43;99182.13;5025893;27;129535;-75
2022/07/06 03:35:58;;;;;;;4.45;2.10;;;18.60;99.90;;;19.22;71.31;99185.09;5043223;27;129496;-74
2022/07/06 03:38:27;;;;;;;4.53;2.15;;;18.70;99.90;;;19.16;70.25;99183.84;5023300;27;118409;-76
2022/07/06 03:40:56;;;;;;;3.70;2.03;;;18.70;99.90;;;19.18;70.36;99184.25;5039661;27;116063;-73
2022/07/06 03:43:25;;;;;;;5.57;2.38;;;18.70;99.90;;;19.19;70.34;99181.13;5028400;27;130376;-75
2022/07/06 03:45:55;;;;;;;3.63;1.67;;;18.70;99.90;;;19.24;70.08;99179.22;5022714;27;129786;-75
2022/07/06 03:48:25;;;;;;;4.57;1.98;;;18.70;99.90;;;19.13;69.80;99179.88;5040281;27;118938;-76
2022/07/06 03:50:54;;;;;;;3.15;1.80;;;18.70;99.90;;;19.19;70.20;99169.34;5042705;27;114580;-75
2022/07/06 03:53:23;;;;;;;3.75;1.70;;;18.70;99.90;;;19.14;70.90;99169.69;5023302;27;129767;-75
2022/07/06 03:58:37;;;;;;;6.00;1.80;;;18.60;99.90;;;19.18;70.65;99165.81;5008887;27;119072;-75
2022/07/06 04:01:05;;;;;;;4.32;2.05;;;18.70;99.90;;;19.31;70.55;99160.03;5023503;27;115210;-74
2022/07/06 04:03:36;;;;;;;4.32;2.20;;;18.70;99.90;;;19.41;70.07;99164.84;5056670;27;130657;-75
2022/07/06 04:06:06;;;;;;;5.53;1.83;;;18.80;99.90;;;19.43;69.79;99168.00;5060167;27;128769;-72
2022/07/06 04:08:35;;;;;;;5.47;2.25;;;18.80;99.90;;;19.44;69.63;99155.03;5023257;27;118917;-72
2022/07/06 04:11:04;;;;;;;3.50;1.77;;;18.80;99.90;;;19.51;69.90;99160.59;5026532;27;114790;-74
2022/07/06 04:13:33;;;;;;;4.15;1.90;;;18.90;99.90;;;19.58;69.38;99163.41;5022886;27;130016;-75
2022/07/06 04:16:02;;;;;;;6.30;2.22;;;18.90;99.90;;;19.57;69.47;99156.31;5025881;27;129317;-76
2022/07/06 04:18:31;;;;;;;6.22;2.40;;;19.00;99.90;;;19.81;69.19;99154.97;5023054;27;119295;-74
2022/07/06 04:21:02;;;;;;;4.32;1.90;;;19.10;99.90;;;19.60;68.79;99158.31;5057324;27;114897;-76
2022/07/06 04:23:33;;;;;;;4.43;1.75;;;19.00;99.90;;;19.68;68.24;99150.91;5023251;27;129902;-74
2022/07/06 04:26:03;;;;;;;2.45;1.70;;;19.10;99.90;;;19.93;68.39;99151.13;5022760;27;129738;-75
2022/07/06 04:28:35;;;;;;;6.28;2.00;;;19.20;99.90;;;20.02;67.14;99148.03;5025975;27;117641;-76
2022/07/06 04:31:03;;;;;;;3.67;1.80;;;19.20;99.90;;;19.90;67.97;99146.38;5041222;27;116024;-73
2022/07/06 04:33:32;;;;;;;8.30;2.33;;;19.20;99.90;;;19.83;67.80;99147.13;5009006;27;128843;-72
2022/07/06 04:36:02;;;;;;;5.60;1.70;;;19.20;99.90;;;20.02;67.57;99148.81;5056468;27;129417;-73
2022/07/06 04:38:39;;;;;;;3.60;1.70;;;19.30;99.90;;;20.09;67.29;99146.09;5044750;27;118445;-73
2022/07/06 04:41:09;;;;;;;4.03;1.90;;;19.40;99.90;;;20.20;67.08;99135.16;5026141;27;115567;-72
2022/07/06 04:43:38;;;;;;;4.15;1.65;;;19.40;99.90;;;20.26;67.18;99128.09;5046988;27;129362;-75
2022/07/06 04:46:07;;;;;;;4.40;1.83;;;19.50;99.90;;;20.26;66.30;99119.84;5025416;27;129999;-71
2022/07/06 04:48:39;;;;;;;3.85;1.48;;;19.50;99.90;;;20.39;66.93;99120.28;5026749;27;118639;-72
2022/07/06 04:51:11;;;;;;;3.20;1.90;;;19.60;99.90;;;20.44;66.12;99108.91;5024851;27;115174;-77
2022/07/06 04:53:40;;;;;;;3.42;1.70;;;19.60;99.90;;;20.30;66.30;99106.06;5040632;27;130189;-75
2022/07/06 04:56:10;;;;;;;4.38;1.90;;;19.50;99.90;;;20.32;66.71;99112.00;5059175;27;129557;-71
2022/07/06 04:58:41;;;;;;;3.47;1.95;;;19.50;99.90;;;20.29;66.06;99110.03;5026507;27;118930;-74
2022/07/06 05:01:13;;;;;;;5.88;2.03;;;19.50;99.90;;;20.15;66.44;99107.16;5029750;27;115224;-75
2022/07/06 05:03:41;;;;;;;4.18;2.05;;;19.50;99.90;;;20.27;66.69;99095.81;5043870;27;130230;-75
2022/07/06 05:06:14;;;;;;;3.10;1.70;;;19.50;99.90;;;20.16;66.79;99106.00;5025812;27;129746;-73
2022/07/06 05:08:43;;;;;;;6.30;1.75;;;19.40;99.90;;;20.01;67.21;99100.44;5012563;27;117891;-74
2022/07/06 05:11:11;;;;;;;5.72;1.88;;;19.40;99.90;;;20.08;66.91;99094.94;5026397;27;115026;-75
2022/07/06 05:13:40;;;;;;;3.53;1.80;;;19.50;99.90;;;20.08;66.56;99094.94;5028180;27;130445;-75
2022/07/06 05:16:10;;;;;;;3.38;2.13;;;19.40;99.90;;;20.16;66.60;99097.75;5059426;27;129493;-69
2022/07/06 05:18:38;;;;;;;5.50;1.90;;;19.50;99.90;;;20.29;66.89;99090.72;5029233;27;118621;-75
2022/07/06 05:21:08;;;;;;;4.43;2.08;;;19.60;99.90;;;20.60;65.41;99094.78;5026099;27;115487;-76
2022/07/06 05:23:38;;;;;;;4.18;1.80;;;19.80;99.90;;;20.72;64.90;99088.13;5025145;27;129894;-75
2022/07/06 05:26:07;;;;;;;3.22;2.00;;;19.80;99.90;;;20.91;65.10;99100.00;5028556;27;129292;-73
2022/07/06 05:28:36;;;;;;;4.85;1.60;;;20.00;99.90;;;21.09;63.07;99087.03;5025590;27;119412;-74
2022/07/06 05:31:06;;;;;;;4.95;1.75;;;20.00;99.90;;;21.03;63.80;99094.09;5029001;27;115391;-75
2022/07/06 05:33:37;;;;;;;3.15;1.75;;;19.90;99.90;;;21.15;63.09;99090.19;5025248;27;129675;-75
2022/07/06 05:36:07;;;;;;;3.95;1.90;;;20.00;99.90;;;21.46;62.25;99094.13;5025692;27;129589;-74
2022/07/06 05:38:37;;;;;;;5.32;1.50;;;20.20;99.90;;;21.57;62.29;99090.63;5043360;27;119039;-75
2022/07/06 05:41:05;;;;;;;5.20;1.95;;;20.30;99.90;;;21.76;61.40;99094.94;5011869;27;114053;-75
2022/07/06 05:43:37;;;;;;;5.35;2.40;;;20.50;99.90;;;21.98;61.46;99079.09;5028179;27;129160;-77
2022/07/06 05:46:07;;;;;;;5.05;2.08;;;20.70;99.90;;;21.93;61.17;99074.00;5058998;27;129397;-76
2022/07/06 05:51:24;;;;;;;7.85;2.17;;;20.40;99.90;;;21.45;62.24;99051.16;5028413;27;114482;-74
2022/07/06 05:53:55;;;;;;;6.45;2.40;;;20.40;99.90;;;21.70;61.42;99042.06;5058838;27;130596;-72
2022/07/06 05:56:24;;;;;;;8.13;2.40;;;20.50;99.90;;;21.78;60.23;99049.16;5061863;27;129739;-74
2022/07/06 05:58:54;;;;;;;5.93;2.17;;;20.50;99.90;;;22.08;60.15;99040.38;5025116;27;119236;-75
2022/07/06 06:01:23;;;;;;;4.88;2.00;;;20.80;99.90;;;22.29;59.09;99033.19;5028753;27;114925;-74
2022/07/06 06:04:02;;;;;;;5.38;1.77;;;20.80;99.90;;;22.08;59.04;99023.03;5058457;27;130254;-72
2022/07/06 06:06:31;;;;;;;5.75;1.95;;;20.60;99.90;;;22.07;58.97;99007.63;5027868;27;129158;-76
2022/07/06 06:09:01;;;;;;;6.72;2.10;;;20.80;99.90;;;22.05;60.02;99001.72;5061516;27;117974;-73
2022/07/06 06:11:31;;;;;;;3.67;1.80;;;20.80;99.90;;;22.17;59.66;98997.72;5025195;27;115589;-77
2022/07/06 06:13:59;;;;;;;5.40;2.08;;;20.90;99.90;;;21.90;60.98;98989.94;5042906;27;130599;-74
2022/07/06 06:16:28;;;;;;;6.82;2.13;;;20.60;99.90;;;21.63;61.60;98981.34;5024651;27;129532;-78
2022/07/06 06:18:57;;;;;;;5.32;2.20;;;20.40;99.90;;;21.70;61.06;98981.31;5062318;27;118348;-78
2022/07/06 06:21:26;;;;;;;5.95;2.13;;;20.60;99.90;;;22.12;60.03;98968.53;5043453;27;115625;-73
2022/07/06 06:23:55;;;;;;;5.82;1.90;;;20.90;99.90;;;22.01;59.80;98970.56;5042317;27;130002;-74
2022/07/06 06:26:24;;;;;;;5.28;1.92;;;20.80;99.90;;;22.04;60.38;98975.28;5016758;27;128271;-75
2022/07/06 06:28:53;;;;;;;4.72;1.90;;;20.80;99.90;;;22.22;59.66;98972.41;5034426;27;118208;-74
2022/07/06 06:31:21;;;;;;;3.65;1.67;;;21.00;99.90;;;22.30;59.18;98976.75;5035607;27;115787;-76
2022/07/06 06:33:50;;;;;;;8.40;2.25;;;21.10;99.90;;;22.16;60.04;98966.53;5046215;27;129913;-74
2022/07/06 06:36:19;;;;;;;4.72;2.00;;;20.90;99.90;;;22.20;59.93;98953.47;5042974;27;130719;-75
2022/07/06 06:38:47;;;;;;;5.60;2.00;;;20.90;99.90;;;22.51;59.40;98956.47;5041232;27;118260;-76
2022/07/06 06:41:16;;;;;;;8.10;2.15;;;21.30;99.90;;;22.53;58.78;98976.22;5043421;27;115009;-75
2022/07/06 06:43:46;;;;;;;5.35;2.17;;;21.20;99.90;;;22.71;58.04;98980.84;5042519;27;130184;-75
2022/07/06 06:46:19;;;;;;;6.57;2.13;;;21.20;99.90;;;22.74;57.97;98968.97;5026952;27;129058;-75
2022/07/06 06:48:48;;;;;;;5.13;2.20;;;21.20;99.90;;;22.25;58.75;98969.66;5027831;27;117532;-74
2022/07/06 06:51:16;;;;;;;6.97;2.70;;;20.90;99.90;;;21.64;61.06;98977.41;5024691;27;115125;-75
2022/07/06 06:53:45;;;;;;;6.93;2.42;;;20.50;99.90;;;21.41;61.77;98959.31;5019809;27;129598;-73
2022/07/06 06:56:13;;;;;;;4.50;2.33;;;20.40;99.90;;;21.34;63.19;98970.34;5032740;27;129127;-76
2022/07/06 06:58:42;;;;;;;8.85;2.95;;;20.30;99.90;;;21.43;62.26;98962.44;5027342;27;118012;-74
2022/07/06 07:01:12;;;;;;;6.95;2.40;;;20.50;99.90;;;21.66;62.39;98963.97;5042466;27;116217;-71
2022/07/06 07:03:40;;;;;;;5.80;2.33;;;20.60;99.90;;;21.52;62.67;98960.09;5040522;27;130408;-71
2022/07/06 07:06:09;;;;;;;7.75;2.53;;;20.60;99.90;;;21.57;62.53;98945.09;5041434;27;129609;-72
2022/07/06 07:08:37;;;;;;;9.30;2.60;;;20.60;99.90;;;22.14;61.37;98938.50;5042194;27;119831;-77
2022/07/06 07:11:06;;;;;;;9.75;2.65;;;21.00;99.90;;;22.24;60.43;98937.66;5036107;27;115140;-75
2022/07/06 07:13:34;;;;;;;6.95;2.45;;;21.10;99.90;;;22.41;60.17;98926.94;5021671;28;129817;-76
2022/07/06 07:16:03;;;;;;;5.75;2.38;;;21.20;99.90;;;22.68;60.08;98931.88;5034954;27;129493;-77
2022/07/06 07:18:34;;;;;;;7.38;2.22;;;21.30;99.90;;;22.83;58.64;98911.22;5041656;27;119589;-74
2022/07/06 07:21:02;;;;;;;6.82;2.38;;;21.40;99.90;;;22.95;58.47;98919.00;5027054;27;114397;-76
2022/07/06 07:23:31;;;;;;;5.85;1.73;;;21.50;99.90;;;22.68;58.81;98904.22;5026560;27;129723;-77
2022/07/06 07:26:00;;;;;;;9.65;2.42;;;21.20;99.90;;;22.67;59.02;98908.16;5026980;27;129545;-72
2022/07/06 07:28:28;;;;;;;9.70;2.22;;;21.30;99.90;;;22.84;59.32;98900.91;5026885;27;117917;-76
2022/07/06 07:30:57;;;;;;;9.43;2.53;;;21.50;99.90;;;22.71;58.84;98906.19;5041901;27;115255;-76
2022/07/06 07:33:25;;;;;;;5.35;2.10;;;21.30;99.90;;;22.81;58.50;98902.50;5041471;27;130293;-77
2022/07/06 07:35:55;;;;;;;9.63;2.38;;;21.50;99.90;;;23.10;58.51;98903.06;5041723;27;129642;-77
2022/07/06 07:38:24;;;;;;;10.68;2.40;;;21.70;99.90;;;23.37;57.49;98882.22;5041549;27;118907;-75
2022/07/06 07:40:55;;;;;;;6.20;2.55;;;21.70;99.90;;;23.00;58.29;98892.88;5042228;27;115149;-75
2022/07/06 07:43:23;;;;;;;5.97;2.47;;;21.60;99.90;;;22.82;59.06;98884.72;5041866;27;129864;-76
2022/07/06 07:45:52;;;;;;;5.60;2.20;;;21.50;99.90;;;22.51;59.15;98884.59;5041145;27;129677;-72
2022/07/06 07:48:20;;;;;;;6.43;2.00;;;21.30;99.90;;;22.72;58.30;98869.00;5043828;27;117657;-73
2022/07/06 07:50:49;;;;;;;6.50;2.30;;;21.50;99.90;;;22.94;58.22;98861.31;5041913;27;116622;-78
2022/07/06 07:53:19;;;;;;;13.00;3.00;;;21.60;99.90;;;22.98;57.80;98873.91;5024066;27;129729;-76
2022/07/06 07:55:48;;;;;;;12.60;2.90;;;21.60;99.90;;;22.61;58.67;98863.59;5043196;27;129465;-75
2022/07/06 07:58:16;;;;;;;8.38;2.50;;;21.50;99.90;;;22.70;58.46;98865.88;5041760;27;118889;-71
2022/07/06 08:00:45;;;;;;;5.88;2.92;;;21.60;99.90;;;22.73;58.19;98862.28;5023443;27;115665;-73
2022/07/06 08:03:14;;;;;;;9.15;2.53;;;21.60;99.90;;;23.11;57.61;98859.59;5041178;27;129887;-78
2022/07/06 08:05:42;;;;;;;6.43;2.13;;;21.90;99.90;;;23.36;56.46;98869.56;5041183;27;129847;-75
2022/07/06 08:08:11;;;;;;;11.00;2.30;;;22.10;99.90;;;23.67;55.92;98868.41;5041585;27;119397;-76
2022/07/06 08:10:41;;;;;;;6.35;2.20;;;22.30;99.90;;;23.50;55.68;98858.34;5041254;27;115132;-77
2022/07/06 08:13:10;;;;;;;7.75;2.38;;;22.10;99.90;;;22.84;57.64;98857.44;5030946;27;129924;-71
2022/07/06 08:15:39;;;;;;;7.38;2.30;;;21.60;99.90;;;22.87;58.35;98870.44;5020420;28;129507;-71
2022/07/06 08:18:09;;;;;;;9.18;2.35;;;21.70;99.90;;;22.63;59.57;98863.97;5040195;27;118903;-77
2022/07/06 08:20:38;;;;;;;8.75;2.30;;;21.60;99.90;;;22.65;59.85;98861.56;5041411;27;115128;-76
2022/07/06 08:23:06;;;;;;;7.65;2.58;;;21.60;99.90;;;22.52;60.04;98858.53;5040812;27;130354;-73
2022/07/06 08:25:35;;;;;;;5.60;2.25;;;21.50;99.90;;;22.70;59.27;98857.56;5040754;27;129564;-72
2022/07/06 08:28:05;;;;;;;7.85;2.28;;;21.70;99.90;;;22.50;58.89;98854.59;5041338;27;118856;-75
2022/07/06 08:30:34;;;;;;;5.25;2.25;;;21.50;99.90;;;22.35;59.79;98842.88;5042456;27;115222;-74
2022/07/06 08:33:03;;;;;;;7.85;2.60;;;21.50;99.90;;;22.71;59.08;98848.09;5043864;27;130092;-75
2022/07/06 08:35:31;;;;;;;4.60;2.25;;;21.70;99.90;;;22.96;58.34;98832.03;5043993;27;130399;-73
2022/07/06 08:38:00;;;;;;;4.80;2.30;;;21.90;99.90;;;22.99;58.17;98838.72;5044569;27;118585;-72
2022/07/06 08:40:35;;;;;;;4.05;2.20;;;21.80;99.90;;;22.69;59.63;98818.09;5046737;27;116472;-76
2022/07/06 08:43:06;;;;;;;6.80;2.17;;;21.70;99.90;;;23.01;59.31;98822.47;5059834;27;129825;-74
2022/07/06 08:45:36;;;;;;;8.93;2.33;;;21.90;99.90;;;23.04;58.92;98827.19;5044109;27;129430;-75
2022/07/06 08:48:08;;;;;;;7.43;3.05;;;21.80;99.90;;;23.22;58.96;98821.50;5043386;27;119068;-74
2022/07/06 08:50:36;;;;;;;4.80;2.42;;;21.90;99.90;;;23.46;58.52;98813.28;5044525;27;115135;-79
2022/07/06 08:53:06;;;;;;;5.85;2.40;;;22.00;99.90;;;23.01;59.51;98805.88;5044190;27;130420;-75
2022/07/06 08:55:35;;;;;;;8.93;2.60;;;21.80;99.90;;;23.38;59.36;98800.75;5046006;27;129349;-76
2022/07/06 08:58:06;;;;;;;4.88;2.30;;;22.10;99.90;;;23.36;58.51;98803.94;5044511;27;120063;-73
2022/07/06 09:00:36;;;;;;;8.68;2.67;;;22.00;99.90;;;23.56;57.91;98787.47;5044626;27;115912;-78
2022/07/06 09:03:07;;;;;;;4.95;2.50;;;22.20;99.90;;;23.38;58.31;98793.22;5043707;27;130682;-76
2022/07/06 09:05:37;;;;;;;5.85;2.40;;;22.00;99.90;;;23.84;57.64;98786.28;5043870;27;130222;-73
2022/07/06 09:08:06;;;;;;;4.07;2.30;;;22.40;99.90;;;23.75;57.62;98785.19;5044178;27;119134;-75
2022/07/06 09:10:35;;;;;;;5.70;2.65;;;22.30;99.90;;;23.42;59.33;98779.31;5046036;27;114639;-76
2022/07/06 09:13:07;;;;;;;7.80;2.42;;;22.10;99.90;;;23.39;59.61;98774.63;5044128;27;130369;-73
2022/07/06 09:15:39;;;;;;;6.63;2.72;;;22.10;99.90;;;23.31;60.15;98755.34;5043679;27;130366;-76
2022/07/06 09:18:08;;;;;;;6.63;2.35;;;22.10;99.90;;;23.40;59.87;98734.66;5044393;27;119090;-76
2022/07/06 09:20:38;;;;;;;5.80;2.53;;;22.00;99.90;;;23.57;58.80;98719.78;5044053;27;115213;-74
2022/07/06 09:23:07;;;;;;;6.93;2.38;;;22.20;99.90;;;23.94;58.64;98720.81;5043651;27;130332;-75
2022/07/06 09:25:36;;;;;;;7.22;2.38;;;22.50;99.90;;;24.23;57.74;98721.13;5043883;27;129439;-72
2022/07/06 09:28:06;;;;;;;5.57;2.88;;;22.70;99.90;;;24.10;57.76;98730.47;5043888;27;119521;-76
2022/07/06 09:30:39;;;;;;;6.90;2.40;;;22.50;99.90;;;23.91;58.91;98710.56;5043960;27;117100;-75
2022/07/06 09:33:10;;;;;;;6.15;2.90;;;22.40;99.90;;;23.76;59.23;98714.75;5029530;27;129383;-74
2022/07/06 09:35:39;;;;;;;6.32;2.83;;;22.40;99.90;;;23.40;60.66;98713.28;5043744;27;130494;-72
2022/07/06 09:38:09;;;;;;;6.07;2.63;;;22.20;99.90;;;22.98;62.47;98718.97;5045757;27;119046;-73
2022/07/06 09:40:40;;;;;;;5.97;2.38;;;21.90;99.90;;;22.89;63.10;98704.06;5028861;27;115052;-75
2022/07/06 09:43:17;;;;;;;7.88;2.55;;;21.80;99.90;;;22.68;63.82;98694.84;5041317;27;129982;-72
2022/07/06 09:45:49;;;;;;;5.75;2.58;;;21.70;99.90;;;22.35;65.27;98686.13;5043607;27;129669;-77
2022/07/06 09:48:21;;;;;;;8.88;2.70;;;21.50;99.90;;;22.11;66.31;98689.88;5043778;27;119038;-75
2022/07/06 09:50:52;;;;;;;7.53;2.88;;;21.40;99.90;;;22.11;67.06;98693.44;5041118;27;114817;-74
2022/07/06 09:53:23;;;;;;;6.70;2.70;;;21.30;99.90;;;22.11;67.49;98693.44;5024635;27;130037;-75
2022/07/06 09:55:55;;;;;;;11.05;3.05;;;21.30;99.90;;;22.14;68.27;98695.34;5012921;28;128957;-72
2022/07/06 09:58:26;;;;;;;5.97;3.03;;;21.30;99.90;;;22.00;68.15;98710.13;5023174;28;119514;-71
2022/07/06 10:00:55;;;;;;;7.25;2.80;;;21.20;99.90;;;22.03;69.35;98758.22;5023182;28;115555;-72
2022/07/06 10:03:24;;;;;;;7.10;2.90;;;21.10;99.90;;;22.12;69.73;98796.44;5004362;28;129737;-73
2022/07/06 10:05:55;;;;;;;9.77;3.63;;;21.10;99.90;;;22.08;76.11;98813.06;5022491;28;129672;-75
2022/07/06 10:08:24;;;;;;;13.82;4.22;;;20.90;99.90;;;21.96;80.85;98805.25;5023049;28;119396;-77
2022/07/06 10:10:53;;;;;;;11.18;4.40;;;20.60;99.90;;;21.60;84.49;98802.69;5023578;28;115107;-82
2022/07/06 10:13:23;;;;;;;8.90;4.03;;;20.10;1.00;;;21.48;84.92;98810.22;5026049;28;130087;-78
2022/07/06 10:15:54;;;;;;;10.90;5.00;;;19.80;1.00;;;21.25;89.31;98820.97;5022724;28;129621;-76
2022/07/06 10:18:23;;;;;;;9.65;4.90;;;19.60;1.00;;;20.93;89.70;98835.66;5007680;28;117968;-79
2022/07/06 10:20:52;;;;;;;12.63;5.40;;;19.30;1.00;;;20.62;94.88;98876.63;5023333;28;115725;-78
2022/07/06 10:23:22;;;;;;;16.75;6.13;;;19.20;1.00;;;20.17;99.48;98923.03;5007503;28;129365;-76
2022/07/06 10:25:52;;;;;;;21.95;7.88;;;19.00;1.00;;;19.84;100.00;98889.91;5021779;28;129568;-75
2022/07/06 10:28:22;;;;;;;16.33;6.70;;;18.70;1.00;;;19.51;100.00;98833.13;5022841;28;118862;-73